createdAt,value
2023-01-09T00:02:50.458Z,96935.34
2023-01-09T00:07:08.208Z,96933.94
2023-01-09T00:11:25.891Z,96934.53
2023-01-09T00:15:43.589Z,96932.94
2023-01-09T00:20:01.105Z,96934.94
2023-01-09T00:24:18.906Z,96938.91
2023-01-09T00:28:36.669Z,96934.53
2023-01-09T00:32:55.592Z,96922.88
2023-01-09T00:37:13.297Z,96912.78
2023-01-09T00:41:44.670Z,96911.22
2023-01-09T00:46:06.709Z,96913.59
2023-01-09T00:50:30.925Z,96909.50
2023-01-09T00:54:48.571Z,96919.38
2023-01-09T00:59:07.466Z,96917.84
2023-01-09T01:03:25.448Z,96915.28
2023-01-09T01:07:43.493Z,96919.69
2023-01-09T01:12:07.234Z,96918.69
2023-01-09T01:16:25.703Z,96902.09
2023-01-09T01:20:45.385Z,96910.41
2023-01-09T01:25:04.559Z,96891.03
2023-01-09T01:29:22.439Z,96890.03
2023-01-09T01:33:39.938Z,96889.69
2023-01-09T01:37:57.920Z,96882.91
2023-01-09T01:42:15.486Z,96873.25
2023-01-09T01:46:34.845Z,96864.19
2023-01-09T01:51:05.244Z,96885.50
2023-01-09T01:55:23.585Z,96878.81
2023-01-09T01:59:50.623Z,96882.34
2023-01-09T02:04:08.665Z,96881.97
2023-01-09T02:08:26.635Z,96873.66
2023-01-09T02:12:44.133Z,96868.72
2023-01-09T02:17:17.615Z,96865.75
2023-01-09T02:22:27.828Z,96870.09
2023-01-09T02:27:01.801Z,96850.56
2023-01-09T02:31:41.480Z,96852.72
2023-01-09T02:36:57.956Z,96852.34
2023-01-09T02:41:26.721Z,96855.50
2023-01-09T02:45:44.448Z,96864.00
2023-01-09T02:50:06.275Z,96863.22
2023-01-09T02:54:47.325Z,96866.38
2023-01-09T02:59:39.307Z,96876.84
2023-01-09T03:04:25.321Z,96869.31
2023-01-09T03:08:53.554Z,96878.03
2023-01-09T03:13:15.663Z,96860.25
2023-01-09T03:17:38.923Z,96855.69
2023-01-09T03:21:57.654Z,96850.38
2023-01-09T03:26:15.375Z,96851.56
2023-01-09T03:30:34.855Z,96839.31
2023-01-09T03:34:52.566Z,96822.34
2023-01-09T03:39:10.247Z,96823.53
2023-01-09T03:43:27.971Z,96814.63
2023-01-09T03:47:45.481Z,96812.47
2023-01-09T03:52:03.322Z,96806.31
2023-01-09T03:56:20.835Z,96781.63
2023-01-09T04:00:39.683Z,96785.22
2023-01-09T04:04:57.191Z,96777.06
2023-01-09T04:09:15.030Z,96774.72
2023-01-09T04:13:32.546Z,96773.72
2023-01-09T04:17:50.075Z,96766.63
2023-01-09T04:22:07.667Z,96759.91
2023-01-09T04:26:25.403Z,96743.50
2023-01-09T04:30:43.055Z,96754.19
2023-01-09T04:35:00.552Z,96747.66
2023-01-09T04:39:18.148Z,96744.28
2023-01-09T04:43:35.697Z,96744.50
2023-01-09T04:47:53.569Z,96738.38
2023-01-09T04:52:11.040Z,96733.03
2023-01-09T04:56:28.774Z,96732.47
2023-01-09T05:00:46.441Z,96732.25
2023-01-09T05:05:11.808Z,96727.72
2023-01-09T05:09:29.847Z,96725.75
2023-01-09T05:13:47.610Z,96726.94
2023-01-09T05:18:05.264Z,96723.19
2023-01-09T05:22:22.859Z,96712.69
2023-01-09T05:26:40.571Z,96707.56
2023-01-09T05:30:58.351Z,96693.34
2023-01-09T05:35:16.043Z,96686.84
2023-01-09T05:39:33.565Z,96679.53
2023-01-09T05:43:51.228Z,96684.06
2023-01-09T05:48:08.695Z,96673.00
2023-01-09T05:52:26.388Z,96677.16
2023-01-09T05:56:43.927Z,96662.75
2023-01-09T06:01:01.735Z,96664.31
2023-01-09T06:05:19.302Z,96667.66
2023-01-09T06:09:37.257Z,96663.53
2023-01-09T06:13:54.905Z,96662.13
2023-01-09T06:18:12.558Z,96665.91
2023-01-09T06:22:30.327Z,96657.97
2023-01-09T06:26:48.197Z,96664.50
2023-01-09T06:31:06.347Z,96670.03
2023-01-09T06:35:24.159Z,96676.13
2023-01-09T06:39:41.938Z,96671.19
2023-01-09T06:43:59.424Z,96659.94
2023-01-09T06:48:17.205Z,96677.34
2023-01-09T06:52:34.882Z,96672.19
2023-01-09T06:56:52.546Z,96669.03
2023-01-09T07:01:10.393Z,96668.00
2023-01-09T07:05:28.032Z,96664.25
2023-01-09T07:09:45.949Z,96663.44
2023-01-09T07:14:03.439Z,96655.75
2023-01-09T07:18:21.160Z,96671.72
2023-01-09T07:22:38.672Z,96667.78
2023-01-09T07:26:56.306Z,96670.72
2023-01-09T07:31:13.823Z,96664.81
2023-01-09T07:35:31.532Z,96657.50
2023-01-09T07:39:49.134Z,96652.97
2023-01-09T07:44:09.561Z,96661.44
2023-01-09T07:48:28.337Z,96676.41
2023-01-09T07:52:46.860Z,96674.44
2023-01-09T07:57:04.617Z,96678.59
2023-01-09T08:01:22.563Z,96670.09
2023-01-09T08:05:40.350Z,96677.19
2023-01-09T08:09:58.020Z,96674.66
2023-01-09T08:14:15.805Z,96669.88
2023-01-09T08:18:33.351Z,96666.00
2023-01-09T08:22:52.320Z,96665.13
2023-01-09T08:27:10.176Z,96665.34
2023-01-09T08:31:28.000Z,96644.75
2023-01-09T08:35:45.976Z,96645.97
2023-01-09T08:40:03.904Z,96652.34
2023-01-09T08:44:40.118Z,96649.53
2023-01-09T08:48:57.788Z,96637.63
2023-01-09T08:53:15.641Z,96639.03
2023-01-09T08:57:33.443Z,96639.81
2023-01-09T09:01:51.136Z,96647.13
2023-01-09T09:06:08.845Z,96653.34
2023-01-09T09:10:29.115Z,96643.50
2023-01-09T09:15:07.301Z,96661.94
2023-01-09T09:19:24.854Z,96657.28
2023-01-09T09:23:42.518Z,96647.13
2023-01-09T09:28:01.375Z,96632.69
2023-01-09T09:32:19.173Z,96625.84
2023-01-09T09:36:37.038Z,96617.41
2023-01-09T09:41:42.437Z,96608.06
2023-01-09T09:46:29.037Z,96606.81
2023-01-09T09:51:25.084Z,96602.66
2023-01-09T09:55:43.686Z,96604.56
2023-01-09T10:00:01.812Z,96604.06
2023-01-09T10:04:23.847Z,96596.34
2023-01-09T10:09:02.650Z,96581.44
2023-01-09T10:13:43.253Z,96579.59
2023-01-09T10:18:42.004Z,96573.19
2023-01-09T10:23:44.774Z,96587.09
2023-01-09T10:28:50.798Z,96592.91
2023-01-09T10:33:41.111Z,96590.88
2023-01-09T10:38:01.867Z,96583.66
2023-01-09T10:42:36.706Z,96571.94
2023-01-09T10:46:57.419Z,96584.97
2023-01-09T10:51:25.514Z,96573.88
2023-01-09T10:55:50.374Z,96578.59
2023-01-09T11:00:17.532Z,96562.63
2023-01-09T11:04:37.963Z,96561.06
2023-01-09T11:08:59.147Z,96555.94
2023-01-09T11:13:33.415Z,96555.94
2023-01-09T11:17:52.318Z,96552.22
2023-01-09T11:22:19.066Z,96555.94
2023-01-09T11:26:36.576Z,96559.28
2023-01-09T11:31:00.636Z,96567.63
2023-01-09T11:35:27.277Z,96560.28
2023-01-09T11:39:48.237Z,96566.59
2023-01-09T11:44:06.101Z,96562.06
2023-01-09T11:48:57.146Z,96563.28
2023-01-09T11:53:20.861Z,96565.44
2023-01-09T11:57:38.426Z,96566.44
2023-01-09T12:02:25.585Z,96566.22
2023-01-09T12:07:17.476Z,96562.44
2023-01-09T12:11:43.124Z,96559.03
2023-01-09T12:16:23.275Z,96561.78
2023-01-09T12:21:25.722Z,96556.44
2023-01-09T12:26:02.119Z,96548.84
2023-01-09T12:30:30.984Z,96548.81
2023-01-09T12:35:33.433Z,96543.00
2023-01-09T12:40:29.160Z,96545.56
2023-01-09T12:44:57.660Z,96537.25
2023-01-09T12:49:35.928Z,96528.75
2023-01-09T12:54:23.838Z,96531.19
2023-01-09T12:59:01.927Z,96530.59
2023-01-09T13:03:49.836Z,96521.97
2023-01-09T13:08:28.421Z,96529.22
2023-01-09T13:12:47.823Z,96526.97
2023-01-09T13:17:14.528Z,96516.19
2023-01-09T13:21:32.559Z,96515.97
2023-01-09T13:25:57.724Z,96508.72
2023-01-09T13:30:39.253Z,96532.53
2023-01-09T13:35:01.634Z,96548.28
2023-01-09T13:39:37.868Z,96545.00
2023-01-09T13:44:02.296Z,96553.72
2023-01-09T13:48:42.094Z,96558.50
2023-01-09T13:53:19.839Z,96561.25
2023-01-09T13:58:08.336Z,96563.81
2023-01-09T14:02:41.692Z,96568.78
2023-01-09T14:07:20.401Z,96566.22
2023-01-09T14:11:38.227Z,96579.25
2023-01-09T14:16:11.097Z,96582.00
2023-01-09T14:20:36.953Z,96589.34
2023-01-09T14:25:01.391Z,96595.53
2023-01-09T14:29:44.841Z,96590.88
2023-01-09T14:34:32.025Z,96603.72
2023-01-09T14:39:04.232Z,96602.16
2023-01-09T14:43:38.545Z,96614.59
2023-01-09T14:48:02.776Z,96614.09
2023-01-09T14:52:30.284Z,96621.72
2023-01-09T14:56:48.399Z,96625.50
2023-01-09T15:01:23.796Z,96626.47
2023-01-09T15:05:45.538Z,96623.72
2023-01-09T15:10:05.057Z,96620.38
2023-01-09T15:14:40.264Z,96630.69
2023-01-09T15:19:02.564Z,96638.53
2023-01-09T15:23:26.377Z,96642.16
2023-01-09T15:27:56.459Z,96640.47
2023-01-09T15:32:29.344Z,96646.06
2023-01-09T15:36:49.377Z,96650.22
2023-01-09T15:41:12.171Z,96672.84
2023-01-09T15:45:56.774Z,96679.88
2023-01-09T15:50:18.000Z,96686.69
2023-01-09T15:54:36.105Z,96690.63
2023-01-09T15:58:55.227Z,96689.38
2023-01-09T16:03:20.620Z,96685.03
2023-01-09T16:07:46.766Z,96694.75
2023-01-09T16:12:04.871Z,96699.28
2023-01-09T16:16:31.409Z,96700.44
2023-01-09T16:20:49.658Z,96706.41
2023-01-09T16:25:35.096Z,96697.91
2023-01-09T16:29:57.988Z,96695.97
2023-01-09T16:34:16.687Z,96703.66
2023-01-09T16:38:34.600Z,96720.69
2023-01-09T16:43:07.542Z,96713.91
2023-01-09T16:47:25.053Z,96718.56
2023-01-09T16:51:43.650Z,96735.28
2023-01-09T16:56:01.147Z,96740.41
2023-01-09T17:00:21.298Z,96731.44
2023-01-09T17:04:38.802Z,96737.41
2023-01-09T17:08:56.992Z,96749.09
2023-01-09T17:13:14.625Z,96748.50
2023-01-09T17:17:32.278Z,96756.44
2023-01-09T17:21:49.894Z,96760.97
2023-01-09T17:26:31.540Z,96768.47
2023-01-09T17:30:49.337Z,96775.78
2023-01-09T17:35:07.366Z,96777.41
2023-01-09T17:39:25.434Z,96802.47
2023-01-09T17:43:44.513Z,96790.97
2023-01-09T17:48:03.352Z,96797.88
2023-01-09T17:52:22.263Z,96802.41
2023-01-09T17:56:44.461Z,96797.34
2023-01-09T18:01:02.275Z,96811.97
2023-01-09T18:05:24.617Z,96820.88
2023-01-09T18:09:43.669Z,96824.59
2023-01-09T18:14:01.329Z,96825.00
2023-01-09T18:18:20.331Z,96828.56
2023-01-09T18:22:38.175Z,96826.16
2023-01-09T18:26:55.889Z,96834.25
2023-01-09T18:31:15.772Z,96827.00
2023-01-09T18:35:34.566Z,96827.97
2023-01-09T18:39:52.270Z,96819.63
2023-01-09T18:44:09.813Z,96834.50
2023-01-09T18:48:27.437Z,96838.28
2023-01-09T18:52:44.933Z,96828.75
2023-01-09T18:57:02.666Z,96844.16
2023-01-09T19:01:20.217Z,96855.06
2023-01-09T19:05:38.076Z,96855.06
2023-01-09T19:09:55.682Z,96853.06
2023-01-09T19:14:13.401Z,96857.03
2023-01-09T19:18:35.415Z,96849.53
2023-01-09T19:22:55.451Z,96863.75
2023-01-09T19:27:13.200Z,96870.47
2023-01-09T19:31:30.945Z,96882.94
2023-01-09T19:35:49.345Z,96885.13
2023-01-09T19:40:07.342Z,96888.09
2023-01-09T19:44:25.333Z,96885.13
2023-01-09T19:48:43.126Z,96885.53
2023-01-09T19:53:00.650Z,96894.63
2023-01-09T19:57:18.309Z,96882.78
2023-01-09T20:01:39.592Z,96891.66
2023-01-09T20:06:04.503Z,96887.91
2023-01-09T20:10:22.132Z,96883.97
2023-01-09T20:14:40.071Z,96893.22
2023-01-09T20:19:00.826Z,96888.69
2023-01-09T20:23:21.717Z,96898.78
2023-01-09T20:27:39.172Z,96909.06
2023-01-09T20:31:57.321Z,96918.13
2023-01-09T20:36:15.718Z,96911.03
2023-01-09T20:40:36.564Z,96916.00
2023-01-09T20:44:54.216Z,96903.53
2023-01-09T20:49:14.339Z,96903.53
2023-01-09T20:53:31.829Z,96907.69
2023-01-09T20:57:49.856Z,96912.81
2023-01-09T21:02:14.714Z,96913.03
2023-01-09T21:06:32.662Z,96910.47
2023-01-09T21:10:57.342Z,96916.78
2023-01-09T21:15:18.093Z,96914.81
2023-01-09T21:19:35.601Z,96912.81
2023-01-09T21:23:56.864Z,96927.06
2023-01-09T21:28:17.645Z,96929.00
2023-01-09T21:32:35.788Z,96930.78
2023-01-09T21:36:53.843Z,96935.53
2023-01-09T21:41:30.729Z,96933.75
2023-01-09T21:46:07.019Z,96941.28
2023-01-09T21:50:24.085Z,96953.91
2023-01-09T21:54:42.096Z,96951.34
2023-01-09T21:58:59.566Z,96954.50
2023-01-09T22:03:19.295Z,96961.81
2023-01-09T22:07:36.860Z,96961.84
2023-01-09T22:11:54.705Z,96974.66
2023-01-09T22:16:13.225Z,96974.84
2023-01-09T22:20:31.041Z,96985.13
2023-01-09T22:24:50.041Z,96987.72
2023-01-09T22:29:07.701Z,96997.19
2023-01-09T22:33:25.337Z,97004.69
2023-01-09T22:37:43.123Z,97007.28
2023-01-09T22:42:00.572Z,97000.16
2023-01-09T22:46:18.214Z,97000.75
2023-01-09T22:50:36.746Z,97000.97
2023-01-09T22:54:57.274Z,97012.03
2023-01-09T22:59:14.816Z,96997.41
2023-01-09T23:03:32.809Z,97002.72
2023-01-09T23:07:50.286Z,97005.50
2023-01-09T23:12:08.267Z,97003.72
2023-01-09T23:16:26.198Z,97015.94
2023-01-09T23:20:58.018Z,97013.97
2023-01-09T23:25:16.104Z,97016.53
2023-01-09T23:29:33.698Z,97025.25
2023-01-09T23:33:57.223Z,97020.50
2023-01-09T23:38:15.568Z,97022.69
2023-01-09T23:42:51.696Z,97022.88
2023-01-09T23:47:08.956Z,97028.59
2023-01-09T23:51:27.729Z,97026.66
2023-01-09T23:55:45.131Z,97020.91
